Terminal Aerodrome Forecast
Issued by NWS

Home | Current Version | Previous Version | Graphics & Text | Print | Product List | Glossary On
Versions: 1 2 3 4 5 6 7 8 9 10 11 12 13 14 15 16
000
FTUS41 KCLE 311100
TAFFDY
TAF
KFDY 311129Z 3112/0112 21010KT P6SM BKN070 BKN150
     FM010300 23008KT 6SM -SN OVC035
     FM010500 VRB05KT 3SM -SN OVC012
     FM010900 10005KT 1SM -SN OVC007=

USA.gov is the U.S. government's official web portal to all federal, state and local government web resources and services.